Time;durP1;ratioP1;P1;durP2;ratioP2;P2;SDS_P1;SDS_P2;PMS_P1;PMS_P2;Temp;Humidity;BMP_temperature;BMP_pressure;BME280_temperature;BME280_humidity;BME280_pressure;Samples;Min_cycle;Max_cycle;Signal;HPM_P1;HPM_P2
2023/08/11 00:01:58;;;;;;;15.65;13.35;;;17.00;99.90;;;;;;6154063;23;20040;-88
2023/08/11 00:04:24;;;;;;;12.65;9.10;;;17.00;99.90;;;;;;6154289;23;20010;-88
2023/08/11 00:06:51;;;;;;;16.92;13.65;;;16.90;99.90;;;;;;6153949;23;20049;-88
2023/08/11 00:09:16;;;;;;;15.98;14.20;;;17.00;99.90;;;;;;6153866;23;20010;-88
2023/08/11 00:11:42;;;;;;;16.42;14.43;;;17.00;99.90;;;;;;6154066;23;20107;-88
2023/08/11 00:14:07;;;;;;;15.45;13.20;;;17.00;99.90;;;;;;6153967;23;20013;-88
2023/08/11 00:16:33;;;;;;;15.45;13.57;;;17.00;99.90;;;;;;6153819;23;20021;-88
2023/08/11 00:18:59;;;;;;;15.50;13.88;;;17.00;99.90;;;;;;6153874;23;20084;-88
2023/08/11 00:21:24;;;;;;;17.20;13.50;;;17.00;99.90;;;;;;6129440;23;20013;-88
2023/08/11 00:23:50;;;;;;;16.05;9.63;;;17.00;99.90;;;;;;6154004;23;20013;-88
2023/08/11 00:26:15;;;;;;;15.45;12.60;;;16.90;99.90;;;;;;6153910;23;20510;-88
2023/08/11 00:28:41;;;;;;;15.75;13.35;;;16.90;99.90;;;;;;6153614;23;20060;-87
2023/08/11 00:31:08;;;;;;;14.73;13.05;;;16.90;99.90;;;;;;6153960;23;20017;-88
2023/08/11 00:33:33;;;;;;;16.00;12.45;;;16.90;99.90;;;;;;6153422;23;20049;-88
2023/08/11 00:35:59;;;;;;;13.52;8.55;;;16.90;99.90;;;;;;6153445;23;20463;-88
2023/08/11 00:38:38;;;;;;;18.73;13.13;;;16.90;99.90;;;;;;6128960;23;20044;-88
2023/08/11 00:41:05;;;;;;;14.45;12.18;;;16.90;99.90;;;;;;6153735;23;20013;-88
2023/08/11 00:43:30;;;;;;;13.25;10.80;;;16.80;99.90;;;;;;6129123;23;20057;-88
2023/08/11 00:45:56;;;;;;;11.57;7.68;;;16.80;99.90;;;;;;6129126;23;20355;-88
2023/08/11 00:48:22;;;;;;;13.45;10.30;;;16.80;99.90;;;;;;6153695;23;20013;-88
2023/08/11 00:50:48;;;;;;;13.57;7.82;;;16.70;99.90;;;;;;6128980;23;20016;-88
2023/08/11 00:53:14;;;;;;;13.60;11.10;;;16.70;99.90;;;;;;6128990;23;20056;-88
2023/08/11 00:55:39;;;;;;;13.20;11.00;;;16.70;99.90;;;;;;6128840;23;20021;-88
2023/08/11 00:58:06;;;;;;;14.77;11.63;;;16.70;99.90;;;;;;6128910;23;20005;-88
2023/08/11 01:00:32;;;;;;;12.90;10.90;;;16.70;99.90;;;;;;6155269;23;20021;-88
2023/08/11 01:02:57;;;;;;;12.52;11.20;;;16.70;99.90;;;;;;6129231;23;20021;-88
2023/08/11 01:05:25;;;;;;;14.50;10.65;;;16.70;99.90;;;;;;6154037;23;20073;-88
2023/08/11 01:08:07;;;;;;;14.60;11.93;;;16.70;99.90;;;;;;6155754;23;20033;-88
2023/08/11 01:11:08;;;;;;;15.13;11.80;;;16.80;99.90;;;;;;6158523;23;20020;-88
2023/08/11 01:13:39;;;;;;;15.95;10.82;;;16.70;99.90;;;;;;6158687;23;20009;-88
2023/08/11 01:16:07;;;;;;;11.43;7.35;;;16.70;99.90;;;;;;6158160;23;20009;-88
2023/08/11 01:18:34;;;;;;;13.77;10.77;;;16.60;99.90;;;;;;6158082;23;20048;-88
2023/08/11 01:21:05;;;;;;;11.50;7.88;;;16.70;99.90;;;;;;6158489;23;20009;-88
2023/08/11 01:23:31;;;;;;;11.77;10.50;;;16.60;99.90;;;;;;6133667;23;20020;-88
2023/08/11 01:25:58;;;;;;;12.63;10.57;;;16.60;99.90;;;;;;6133339;23;20017;-88
2023/08/11 01:28:23;;;;;;;12.45;10.80;;;16.60;99.90;;;;;;6157601;23;20354;-88
2023/08/11 01:30:49;;;;;;;12.13;7.07;;;16.60;99.90;;;;;;6158189;23;20453;-88
2023/08/11 01:33:15;;;;;;;15.13;10.45;;;16.50;99.90;;;;;;6158586;23;20028;-88
2023/08/11 01:35:40;;;;;;;13.35;10.70;;;16.50;99.90;;;;;;6133289;23;20386;-88
2023/08/11 01:38:08;;;;;;;12.20;7.20;;;16.50;99.90;;;;;;6133465;23;20398;-88
2023/08/11 01:40:35;;;;;;;11.52;9.73;;;16.50;99.90;;;;;;6133643;23;20092;-88
2023/08/11 01:43:05;;;;;;;12.23;10.00;;;16.50;99.90;;;;;;6133457;23;20509;-88
2023/08/11 01:45:30;;;;;;;10.57;7.35;;;16.50;99.90;;;;;;6157967;23;20027;-88
2023/08/11 01:47:57;;;;;;;12.15;9.30;;;16.50;99.90;;;;;;6133336;23;20013;-88
2023/08/11 01:50:23;;;;;;;13.82;10.23;;;16.50;99.90;;;;;;6158262;23;20009;-88
2023/08/11 01:52:52;;;;;;;14.05;10.88;;;16.50;99.90;;;;;;6133957;23;20347;-88
2023/08/11 01:55:18;;;;;;;11.93;7.55;;;16.50;99.90;;;;;;6158014;23;20005;-88
2023/08/11 01:57:44;;;;;;;12.10;7.28;;;16.40;99.90;;;;;;6133244;23;20402;-88
2023/08/11 02:00:13;;;;;;;13.95;10.50;;;16.30;99.90;;;;;;6158097;23;20020;-88
2023/08/11 02:02:45;;;;;;;12.30;10.25;;;16.40;99.90;;;;;;6157715;23;20524;-88
2023/08/11 02:05:12;;;;;;;13.27;7.47;;;16.40;99.90;;;;;;6132776;23;20086;-88
2023/08/11 02:07:41;;;;;;;13.93;9.50;;;16.40;99.90;;;;;;6132866;23;20024;-88
2023/08/11 02:10:08;;;;;;;12.70;9.95;;;16.40;99.90;;;;;;6133549;23;20397;-88
2023/08/11 02:12:34;;;;;;;12.18;9.90;;;16.40;99.90;;;;;;6158056;23;20065;-88
2023/08/11 02:15:00;;;;;;;11.80;6.88;;;16.40;99.90;;;;;;6133243;23;20019;-88
2023/08/11 02:17:25;;;;;;;11.32;6.97;;;16.30;99.90;;;;;;6132771;23;20021;-88
2023/08/11 02:19:51;;;;;;;14.63;9.77;;;16.30;99.90;;;;;;6156399;23;20020;-88
2023/08/11 02:22:18;;;;;;;12.68;7.30;;;16.30;99.90;;;;;;6133339;23;20024;-88
2023/08/11 02:24:44;;;;;;;12.55;9.90;;;16.30;99.90;;;;;;6133611;23;20010;-88
2023/08/11 02:27:09;;;;;;;12.93;9.63;;;16.30;99.90;;;;;;6157553;23;20016;-87
2023/08/11 02:29:36;;;;;;;13.23;9.90;;;16.30;99.90;;;;;;6133433;23;20518;-88
2023/08/11 02:32:04;;;;;;;12.48;9.85;;;16.30;99.90;;;;;;6157841;23;20009;-88
2023/08/11 02:34:33;;;;;;;12.18;9.52;;;16.30;99.90;;;;;;6157235;23;20009;-88
2023/08/11 02:36:58;;;;;;;12.75;6.57;;;16.30;99.90;;;;;;6157013;23;20066;-88
2023/08/11 02:39:24;;;;;;;9.88;5.85;;;16.20;99.90;;;;;;6134936;23;20095;-88
2023/08/11 02:41:50;;;;;;;12.68;9.25;;;16.10;99.90;;;;;;6135181;23;20462;-88
2023/08/11 02:44:15;;;;;;;12.95;9.27;;;16.20;99.90;;;;;;6135000;23;20020;-88
2023/08/11 02:46:41;;;;;;;13.00;10.05;;;16.10;99.90;;;;;;6135112;23;20091;-87
2023/08/11 02:49:07;;;;;;;12.10;9.73;;;16.20;99.90;;;;;;6159578;23;20021;-88
2023/08/11 02:51:33;;;;;;;10.23;6.05;;;16.20;99.90;;;;;;6135654;23;20332;-88
2023/08/11 02:53:59;;;;;;;11.88;9.00;;;16.10;99.90;;;;;;6159809;23;20355;-88
2023/08/11 02:56:25;;;;;;;10.95;6.55;;;16.10;99.90;;;;;;6134834;23;20009;-88
2023/08/11 02:58:52;;;;;;;12.10;6.40;;;16.10;99.90;;;;;;6134588;23;20462;-87
2023/08/11 03:01:18;;;;;;;11.45;9.77;;;16.00;99.90;;;;;;6159608;23;20092;-87
2023/08/11 03:03:43;;;;;;;12.68;9.88;;;16.00;99.90;;;;;;6159220;23;20036;-88
2023/08/11 03:06:10;;;;;;;14.00;10.68;;;16.10;99.90;;;;;;6134819;23;20013;-88
2023/08/11 03:08:37;;;;;;;12.10;6.55;;;16.10;99.90;;;;;;6159313;23;20389;-88
2023/08/11 03:11:03;;;;;;;14.75;8.20;;;16.00;99.90;;;;;;6159438;23;20526;-88
2023/08/11 03:13:29;;;;;;;12.02;9.73;;;15.90;99.90;;;;;;6159592;23;20056;-88
2023/08/11 03:15:55;;;;;;;12.98;9.80;;;15.90;99.90;;;;;;6159325;23;20017;-87
2023/08/11 03:18:22;;;;;;;10.90;7.05;;;15.90;99.90;;;;;;6158942;23;20458;-88
2023/08/11 03:20:47;;;;;;;10.85;7.03;;;15.90;99.90;;;;;;6159560;23;20013;-88
2023/08/11 03:23:13;;;;;;;11.88;10.38;;;15.80;99.90;;;;;;6135165;23;20474;-88
2023/08/11 03:25:39;;;;;;;13.43;11.05;;;15.80;99.90;;;;;;6159276;23;20015;-88
2023/08/11 03:28:05;;;;;;;12.57;7.30;;;15.80;99.90;;;;;;6134387;23;20051;-88
2023/08/11 03:30:31;;;;;;;13.98;10.77;;;15.80;99.90;;;;;;6159415;23;20013;-88
2023/08/11 03:32:56;;;;;;;14.48;11.07;;;15.80;99.90;;;;;;6159460;23;20009;-88
2023/08/11 03:35:22;;;;;;;13.52;12.05;;;15.80;99.90;;;;;;6158926;23;20514;-88
2023/08/11 03:37:48;;;;;;;11.65;7.18;;;15.80;99.90;;;;;;6159004;23;20059;-88
2023/08/11 03:40:13;;;;;;;10.98;6.78;;;15.80;99.90;;;;;;6134986;23;20036;-88
2023/08/11 03:42:43;;;;;;;13.23;9.85;;;15.70;99.90;;;;;;6159605;23;20009;-88
2023/08/11 03:45:13;;;;;;;12.70;9.30;;;15.70;99.90;;;;;;6134572;23;20051;-87
2023/08/11 03:47:42;;;;;;;14.15;11.02;;;15.70;99.90;;;;;;6158688;23;20071;-88
2023/08/11 03:50:09;;;;;;;15.77;6.72;;;15.70;99.90;;;;;;6134579;23;20024;-88
2023/08/11 03:52:36;;;;;;;12.90;10.23;;;15.60;99.90;;;;;;6134531;23;20013;-88
2023/08/11 03:55:03;;;;;;;11.02;7.00;;;15.60;99.90;;;;;;6134498;23;20048;-88
2023/08/11 03:57:28;;;;;;;11.32;5.97;;;15.50;99.90;;;;;;6133751;23;20374;-87
2023/08/11 03:59:54;;;;;;;12.07;10.30;;;15.50;99.90;;;;;;6134983;23;20475;-88
2023/08/11 04:02:20;;;;;;;13.50;10.95;;;15.50;99.90;;;;;;6159393;23;20016;-87
2023/08/11 04:04:45;;;;;;;11.60;7.63;;;15.60;99.90;;;;;;6158370;23;20066;-88
2023/08/11 04:07:11;;;;;;;14.13;11.35;;;15.50;99.90;;;;;;6158377;23;20035;-88
2023/08/11 04:09:43;;;;;;;12.70;6.68;;;15.50;99.90;;;;;;6159362;23;20075;-88
2023/08/11 04:12:12;;;;;;;12.70;7.97;;;15.50;99.90;;;;;;6134393;23;20016;-88
2023/08/11 04:14:38;;;;;;;11.77;7.78;;;15.40;99.90;;;;;;6134312;23;20025;-88
2023/08/11 04:17:03;;;;;;;13.55;11.25;;;15.40;99.90;;;;;;6157538;23;20093;-88
2023/08/11 04:19:29;;;;;;;15.02;11.07;;;15.50;99.90;;;;;;6158947;23;20009;-88
2023/08/11 04:21:55;;;;;;;13.63;10.68;;;15.50;99.90;;;;;;6134060;23;20478;-88
2023/08/11 04:24:21;;;;;;;12.02;7.03;;;15.60;99.90;;;;;;6159086;23;20021;-88
2023/08/11 04:26:47;;;;;;;14.52;10.50;;;15.50;99.90;;;;;;6158487;23;20013;-88
2023/08/11 04:29:12;;;;;;;12.75;10.43;;;15.60;99.90;;;;;;6134239;23;20084;-88
2023/08/11 04:31:40;;;;;;;13.98;10.55;;;15.60;99.90;;;;;;6134229;23;20020;-88
2023/08/11 04:34:06;;;;;;;13.15;10.55;;;15.60;99.90;;;;;;6134273;23;20013;-88
2023/08/11 04:36:32;;;;;;;14.98;7.30;;;15.60;99.90;;;;;;6158531;23;20066;-88
2023/08/11 04:38:57;;;;;;;15.18;11.13;;;15.60;99.90;;;;;;6133767;23;20096;-88
2023/08/11 04:41:23;;;;;;;13.10;10.27;;;15.60;99.90;;;;;;6158641;23;20500;-88
2023/08/11 04:43:49;;;;;;;12.93;6.75;;;15.70;99.90;;;;;;6159163;23;20045;-88
2023/08/11 04:46:15;;;;;;;13.27;10.25;;;15.60;99.90;;;;;;6158083;23;20044;-88
2023/08/11 04:48:40;;;;;;;14.00;10.82;;;15.70;99.90;;;;;;6155930;23;20048;-88
2023/08/11 04:51:06;;;;;;;12.45;10.13;;;15.70;99.90;;;;;;6156544;23;20414;-88
2023/08/11 04:53:32;;;;;;;13.85;10.05;;;15.70;99.90;;;;;;6131922;23;20063;-88
2023/08/11 04:55:57;;;;;;;14.18;10.48;;;15.70;99.90;;;;;;6156934;23;20346;-88
2023/08/11 04:58:23;;;;;;;13.40;10.85;;;15.70;99.90;;;;;;6156212;23;20064;-88
2023/08/11 05:00:49;;;;;;;14.30;10.45;;;15.80;99.90;;;;;;6156486;23;20020;-88
2023/08/11 05:03:14;;;;;;;12.77;9.63;;;15.80;99.90;;;;;;6157211;23;20009;-88
2023/08/11 05:05:41;;;;;;;10.52;5.78;;;15.80;99.90;;;;;;6156011;23;20021;-88
2023/08/11 05:08:07;;;;;;;12.70;6.35;;;15.70;99.90;;;;;;6155950;23;20035;-88
2023/08/11 05:10:33;;;;;;;12.23;9.90;;;15.70;99.90;;;;;;6157104;23;20133;-88
2023/08/11 05:12:59;;;;;;;11.55;7.05;;;15.80;99.90;;;;;;6156653;23;20058;-88
2023/08/11 05:15:24;;;;;;;12.48;9.32;;;15.80;99.90;;;;;;6132026;23;20013;-88
2023/08/11 05:17:50;;;;;;;13.02;9.57;;;15.80;99.90;;;;;;6155900;23;20013;-88
2023/08/11 05:20:16;;;;;;;11.85;9.25;;;15.90;99.90;;;;;;6156390;23;20012;-88
2023/08/11 05:22:43;;;;;;;12.35;9.50;;;15.90;99.90;;;;;;6157483;23;20064;-88
2023/08/11 05:25:09;;;;;;;11.48;6.40;;;16.00;99.90;;;;;;6132198;23;20012;-88
2023/08/11 05:27:35;;;;;;;11.95;9.00;;;16.00;99.90;;;;;;6156658;23;20023;-88
2023/08/11 05:30:01;;;;;;;13.80;9.82;;;16.00;99.90;;;;;;6157045;23;20406;-88
2023/08/11 05:32:27;;;;;;;11.57;7.00;;;16.10;99.90;;;;;;6156627;23;20135;-88
2023/08/11 05:34:53;;;;;;;12.95;8.38;;;16.10;99.90;;;;;;6156481;23;20011;-88
2023/08/11 05:37:18;;;;;;;11.57;9.57;;;16.20;99.90;;;;;;6131523;23;20009;-88
2023/08/11 05:39:44;;;;;;;12.40;9.32;;;16.20;99.90;;;;;;6132186;23;20335;-89
2023/08/11 05:42:10;;;;;;;11.02;5.45;;;16.30;99.90;;;;;;6156729;23;20328;-88
2023/08/11 05:44:36;;;;;;;14.30;9.30;;;16.20;99.90;;;;;;6131562;23;20524;-88
2023/08/11 05:47:01;;;;;;;12.10;6.88;;;16.30;99.90;;;;;;6157222;23;20012;-88
2023/08/11 05:49:28;;;;;;;11.57;6.18;;;16.30;99.90;;;;;;6131964;23;20012;-88
2023/08/11 05:51:54;;;;;;;11.65;6.93;;;16.30;99.90;;;;;;6158374;23;20023;-82
2023/08/11 05:54:20;;;;;;;11.88;8.77;;;16.30;99.90;;;;;;6177356;23;20016;-84
2023/08/11 05:56:45;;;;;;;11.18;6.30;;;16.50;99.90;;;;;;6160525;23;20368;-88
2023/08/11 05:59:11;;;;;;;16.27;9.40;;;16.50;99.90;;;;;;6134479;23;20016;-88
2023/08/11 06:01:37;;;;;;;12.30;8.90;;;16.50;99.90;;;;;;6134277;23;20451;-88
2023/08/11 06:04:03;;;;;;;11.40;6.28;;;16.60;99.90;;;;;;6134242;23;20358;-87
2023/08/11 06:06:31;;;;;;;12.45;8.68;;;16.70;99.90;;;;;;6134218;23;20009;-88
2023/08/11 06:08:57;;;;;;;11.30;8.07;;;16.70;99.90;;;;;;6157961;23;20049;-87
2023/08/11 06:11:23;;;;;;;12.05;8.20;;;16.80;99.90;;;;;;6158149;23;20048;-87
2023/08/11 06:13:49;;;;;;;11.65;8.27;;;16.90;99.90;;;;;;6160381;23;20052;-88
2023/08/11 06:16:15;;;;;;;12.27;8.45;;;16.90;99.90;;;;;;6159796;23;20100;-88
2023/08/11 06:18:41;;;;;;;10.02;6.30;;;17.00;99.90;;;;;;6159701;23;20394;-88
2023/08/11 06:21:06;;;;;;;10.27;8.00;;;17.00;99.90;;;;;;6159451;23;20059;-87
2023/08/11 06:23:32;;;;;;;11.25;6.30;;;17.10;99.90;;;;;;6134241;23;20009;-88
2023/08/11 06:25:58;;;;;;;11.77;6.65;;;17.10;99.90;;;;;;6133788;23;20032;-88
2023/08/11 06:28:24;;;;;;;12.90;8.25;;;17.10;99.90;;;;;;6157268;23;20013;-88
2023/08/11 06:30:49;;;;;;;11.77;8.25;;;17.20;99.90;;;;;;6133956;23;20009;-88
2023/08/11 06:33:15;;;;;;;11.50;8.50;;;17.30;99.90;;;;;;6159020;23;20521;-88
2023/08/11 06:35:42;;;;;;;10.95;8.13;;;17.40;99.90;;;;;;6134130;23;20016;-88
2023/08/11 06:38:09;;;;;;;11.25;6.18;;;17.50;99.90;;;;;;6134210;23;20029;-88
2023/08/11 06:40:36;;;;;;;13.63;7.60;;;17.50;99.90;;;;;;6159343;23;20092;-89
2023/08/11 06:43:01;;;;;;;15.10;7.93;;;17.50;99.90;;;;;;6133977;23;20028;-88
2023/08/11 06:45:27;;;;;;;11.23;7.57;;;17.70;99.90;;;;;;6158633;23;20401;-89
2023/08/11 06:47:53;;;;;;;11.13;8.15;;;17.70;99.90;;;;;;6157608;23;20013;-88
2023/08/11 06:50:19;;;;;;;12.80;7.88;;;17.80;99.90;;;;;;6158324;23;20013;-88
2023/08/11 06:52:45;;;;;;;12.35;8.40;;;17.90;99.90;;;;;;6134320;23;20024;-89
2023/08/11 06:55:10;;;;;;;13.60;8.55;;;18.00;99.90;;;;;;6158739;23;20342;-88
2023/08/11 06:57:36;;;;;;;12.95;8.68;;;18.00;99.90;;;;;;6132801;23;20013;-88
2023/08/11 07:00:07;;;;;;;12.48;8.32;;;18.10;99.90;;;;;;6157921;23;20016;-89
2023/08/11 07:02:34;;;;;;;14.10;8.02;;;18.20;99.90;;;;;;6158227;23;20009;-88
2023/08/11 07:05:01;;;;;;;10.85;7.43;;;18.30;99.90;;;;;;6133281;23;20516;-88
2023/08/11 07:07:26;;;;;;;10.77;7.30;;;18.30;99.90;;;;;;6157651;23;20485;-89
2023/08/11 07:09:52;;;;;;;10.13;7.18;;;18.40;99.90;;;;;;6132307;23;20012;-89
2023/08/11 07:12:18;;;;;;;10.88;7.20;;;18.50;99.90;;;;;;6134101;23;20052;-89
2023/08/11 07:14:43;;;;;;;10.55;7.53;;;18.50;99.90;;;;;;6134073;23;20013;-89
2023/08/11 07:17:09;;;;;;;11.13;7.85;;;18.60;99.90;;;;;;6158196;23;20100;-89
2023/08/11 07:19:35;;;;;;;11.85;6.78;;;18.70;99.90;;;;;;6134833;23;20088;-89
2023/08/11 07:22:01;;;;;;;9.40;6.68;;;18.70;99.90;;;;;;6134232;23;20013;-89
2023/08/11 07:24:27;;;;;;;9.90;6.72;;;18.80;99.90;;;;;;6158231;23;20006;-89
2023/08/11 07:26:52;;;;;;;14.70;8.00;;;18.90;99.90;;;;;;6157907;23;20013;-89
2023/08/11 07:29:18;;;;;;;11.32;6.50;;;19.00;99.90;;;;;;6132557;23;20017;-89
2023/08/11 07:31:44;;;;;;;10.90;7.40;;;19.10;99.90;;;;;;6157278;23;20017;-89
2023/08/11 07:34:10;;;;;;;10.77;6.50;;;19.20;99.90;;;;;;6158528;23;20181;-89
2023/08/11 07:36:36;;;;;;;12.45;6.38;;;19.20;99.90;;;;;;6133829;23;20067;-89
2023/08/11 07:39:02;;;;;;;10.30;6.72;;;19.40;99.90;;;;;;6159075;23;20009;-89
2023/08/11 07:41:28;;;;;;;9.27;6.88;;;19.40;99.90;;;;;;6134398;23;20109;-89
2023/08/11 07:43:54;;;;;;;11.48;6.30;;;19.50;99.90;;;;;;6133960;23;20068;-90
2023/08/11 07:46:20;;;;;;;11.20;6.15;;;19.50;99.90;;;;;;6133303;23;20017;-89
2023/08/11 07:48:46;;;;;;;10.93;6.45;;;19.60;99.90;;;;;;6132684;23;20013;-89
2023/08/11 07:51:14;;;;;;;10.55;6.35;;;19.70;99.90;;;;;;6132980;23;20529;-89
2023/08/11 07:53:39;;;;;;;9.13;6.20;;;19.80;99.90;;;;;;6157905;23;20083;-89
2023/08/11 07:56:05;;;;;;;9.70;5.95;;;19.90;99.90;;;;;;6133061;23;20454;-89
2023/08/11 07:58:31;;;;;;;10.43;5.32;;;19.90;99.90;;;;;;6158071;23;20423;-89
2023/08/11 08:00:56;;;;;;;8.60;5.03;;;20.10;99.90;;;;;;6158426;23;20013;-89
2023/08/11 08:03:23;;;;;;;8.77;4.78;;;20.10;99.90;;;;;;6158031;23;20016;-89
2023/08/11 08:05:48;;;;;;;10.45;5.53;;;20.20;99.90;;;;;;6157391;23;20343;-89
2023/08/11 08:08:15;;;;;;;9.90;5.55;;;20.30;99.90;;;;;;6132955;23;20009;-90
2023/08/11 08:10:41;;;;;;;10.02;5.95;;;20.40;99.90;;;;;;6158116;23;20039;-90
2023/08/11 08:13:07;;;;;;;8.57;5.15;;;20.50;99.90;;;;;;6133421;23;20080;-89
2023/08/11 08:15:32;;;;;;;9.00;4.95;;;20.50;99.90;;;;;;6133135;23;20005;-90
2023/08/11 08:17:58;;;;;;;10.93;5.25;;;20.60;99.90;;;;;;6133027;23;20071;-90
2023/08/11 08:20:23;;;;;;;9.68;5.35;;;20.70;99.90;;;;;;6158894;23;20012;-90
2023/08/11 08:22:49;;;;;;;8.82;4.60;;;20.80;99.90;;;;;;6157626;23;20355;-90
2023/08/11 08:25:15;;;;;;;9.40;4.65;;;20.90;99.90;;;;;;6157436;23;20386;-90
2023/08/11 08:27:41;;;;;;;9.75;4.90;;;20.90;99.90;;;;;;6156628;23;20567;-89
2023/08/11 08:30:11;;;;;;;11.65;5.22;;;21.00;99.90;;;;;;6132952;23;20020;-90
2023/08/11 08:32:38;;;;;;;10.95;5.00;;;21.10;99.90;;;;;;6133659;23;20044;-89
2023/08/11 08:35:05;;;;;;;10.32;5.15;;;21.10;99.90;;;;;;6157979;23;20453;-90
2023/08/11 08:37:31;;;;;;;9.88;4.80;;;21.20;99.90;;;;;;6155529;23;20016;-89
2023/08/11 08:39:57;;;;;;;9.10;4.78;;;21.30;99.90;;;;;;6158412;23;20013;-89
2023/08/11 08:42:25;;;;;;;9.35;4.85;;;21.40;99.90;;;;;;6157831;23;20486;-90
2023/08/11 08:44:52;;;;;;;8.25;4.22;;;21.50;99.90;;;;;;6157339;23;20013;-90
2023/08/11 08:47:21;;;;;;;7.95;4.07;;;21.60;99.90;;;;;;6131840;23;20406;-90
2023/08/11 08:49:48;;;;;;;7.88;4.00;;;21.60;99.90;;;;;;6131561;23;20017;-90
2023/08/11 08:52:15;;;;;;;8.63;4.18;;;21.70;99.90;;;;;;6131707;23;20019;-89
2023/08/11 08:54:41;;;;;;;8.57;4.20;;;21.80;99.90;;;;;;6132766;23;20017;-90
2023/08/11 08:57:10;;;;;;;7.45;3.92;;;21.80;99.90;;;;;;6156524;23;20486;-89
2023/08/11 08:59:39;;;;;;;9.40;4.00;;;21.90;99.90;;;;;;6183949;23;20012;-90
2023/08/11 09:02:06;;;;;;;9.15;3.65;;;22.00;99.90;;;;;;6132076;23;20013;-90
2023/08/11 09:04:32;;;;;;;9.38;4.03;;;22.10;99.90;;;;;;6157124;23;20089;-89
2023/08/11 09:06:58;;;;;;;9.63;4.15;;;22.20;99.90;;;;;;6183202;23;20017;-90
2023/08/11 09:09:24;;;;;;;7.57;3.60;;;22.30;99.90;;;;;;6156672;23;20099;-90
2023/08/11 09:11:50;;;;;;;8.93;3.60;;;22.40;99.90;;;;;;6132795;23;20036;-90
2023/08/11 09:14:20;;;;;;;8.32;3.55;;;22.40;99.90;;;;;;6131814;23;20005;-90
2023/08/11 09:16:45;;;;;;;8.02;3.20;;;22.50;99.90;;;;;;6130285;23;20065;-90
2023/08/11 09:19:12;;;;;;;8.35;3.70;;;22.60;99.90;;;;;;6155446;23;20067;-90
2023/08/11 09:21:42;;;;;;;7.85;3.40;;;22.60;99.90;;;;;;6132268;23;20020;-90
2023/08/11 09:24:11;;;;;;;9.15;3.60;;;22.70;99.90;;;;;;6156381;23;20009;-90
2023/08/11 09:26:37;;;;;;;8.30;3.25;;;22.80;99.90;;;;;;6154883;23;20092;-90
2023/08/11 09:29:04;;;;;;;7.63;3.40;;;22.90;99.90;;;;;;6154475;23;20021;-90
2023/08/11 09:31:30;;;;;;;6.80;3.17;;;22.90;99.90;;;;;;6132073;23;20025;-90
2023/08/11 09:33:56;;;;;;;7.18;3.53;;;23.00;99.90;;;;;;6181754;23;20019;-90
2023/08/11 09:36:21;;;;;;;8.98;3.90;;;23.10;99.90;;;;;;6156744;23;20020;-90
2023/08/11 09:38:49;;;;;;;8.63;3.70;;;23.20;99.90;;;;;;6156922;23;20013;-89
2023/08/11 09:41:16;;;;;;;9.43;3.88;;;23.20;99.90;;;;;;6156901;23;20036;-90
2023/08/11 09:43:48;;;;;;;7.55;3.58;;;23.30;99.90;;;;;;6132783;23;20047;-90
2023/08/11 09:46:13;;;;;;;8.98;3.63;;;23.40;99.90;;;;;;6131698;23;20451;-90
2023/08/11 09:48:39;;;;;;;7.60;3.53;;;23.50;99.90;;;;;;6155461;23;20011;-90
2023/08/11 09:51:10;;;;;;;7.70;3.67;;;23.50;99.90;;;;;;6156085;23;20350;-90
2023/08/11 09:53:40;;;;;;;9.57;3.55;;;23.60;99.90;;;;;;6132489;23;20509;-90
2023/08/11 09:56:07;;;;;;;8.73;3.80;;;23.70;99.40;;;;;;6131943;23;20013;-89
2023/08/11 09:58:37;;;;;;;9.38;3.80;;;23.80;97.80;;;;;;6132351;23;20525;-90
2023/08/11 10:01:02;;;;;;;8.45;3.47;;;23.90;97.80;;;;;;6183674;23;20039;-90
2023/08/11 10:03:32;;;;;;;12.20;3.53;;;23.90;98.70;;;;;;6131786;23;20012;-91
2023/08/11 10:06:01;;;;;;;11.73;3.90;;;24.00;93.10;;;;;;6183440;23;20013;-90
2023/08/11 10:08:29;;;;;;;7.90;3.67;;;24.10;93.20;;;;;;6183029;23;20056;-90
2023/08/11 10:10:55;;;;;;;7.47;3.75;;;24.20;92.60;;;;;;6156096;23;20340;-91
2023/08/11 10:13:28;;;;;;;9.45;3.97;;;24.10;92.20;;;;;;6182240;23;20067;-90
2023/08/11 10:15:55;;;;;;;9.02;3.83;;;24.20;94.80;;;;;;6155693;23;20021;-90
2023/08/11 10:18:22;;;;;;;9.35;4.18;;;24.30;96.60;;;;;;6131308;23;20031;-91
2023/08/11 10:20:50;;;;;;;8.85;3.75;;;24.30;94.60;;;;;;6157212;23;20084;-90
2023/08/11 10:23:17;;;;;;;12.02;3.90;;;24.50;99.90;;;;;;6131804;23;20092;-90
2023/08/11 10:25:47;;;;;;;7.70;3.33;;;24.60;95.80;;;;;;6156500;23;20017;-91
2023/08/11 10:28:14;;;;;;;9.82;3.28;;;24.60;91.70;;;;;;6155952;23;20555;-90
2023/08/11 10:30:40;;;;;;;8.90;3.38;;;24.70;88.50;;;;;;6182779;23;20013;-91
2023/08/11 10:33:08;;;;;;;8.18;3.65;;;24.70;90.20;;;;;;6183331;23;20013;-91
2023/08/11 10:35:47;;;;;;;10.05;3.70;;;24.80;91.40;;;;;;6132051;23;20108;-90
2023/08/11 10:38:16;;;;;;;7.82;3.40;;;24.80;91.20;;;;;;6156403;23;20100;-90
2023/08/11 10:40:44;;;;;;;8.15;3.40;;;24.90;93.50;;;;;;6183171;23;20045;-91
2023/08/11 10:43:15;;;;;;;8.93;3.22;;;25.00;91.20;;;;;;6157483;23;20062;-96
2023/08/11 10:45:41;;;;;;;11.35;3.40;;;25.10;88.30;;;;;;6132146;23;20070;-89
2023/08/11 10:48:08;;;;;;;7.40;3.25;;;25.20;90.80;;;;;;6156321;23;20060;-90
2023/08/11 10:50:38;;;;;;;8.10;3.35;;;25.20;91.10;;;;;;6131556;23;20016;-90
2023/08/11 10:53:18;;;;;;;9.55;3.58;;;25.30;87.30;;;;;;6131962;23;20009;-90
2023/08/11 10:56:02;;;;;;;8.93;3.10;;;25.30;84.90;;;;;;6157006;23;20009;-89
2023/08/11 10:58:32;;;;;;;7.55;3.58;;;25.30;88.30;;;;;;6156520;23;20245;-90
2023/08/11 11:00:58;;;;;;;7.20;3.03;;;25.40;85.30;;;;;;6159446;23;20040;-90
2023/08/11 11:03:25;;;;;;;8.10;3.72;;;25.40;85.80;;;;;;6157928;23;20047;-90
2023/08/11 11:05:51;;;;;;;7.72;3.15;;;25.50;84.70;;;;;;6133820;23;20040;-89
2023/08/11 11:08:16;;;;;;;8.85;3.47;;;25.60;84.80;;;;;;6157971;23;20013;-89
2023/08/11 11:10:42;;;;;;;9.25;3.08;;;25.70;82.60;;;;;;6184983;23;20005;-89
2023/08/11 11:13:08;;;;;;;7.43;3.10;;;25.70;81.00;;;;;;6159147;23;20020;-90
2023/08/11 11:15:34;;;;;;;7.60;2.85;;;25.80;82.00;;;;;;6132450;23;20013;-90
2023/08/11 11:18:00;;;;;;;7.38;2.90;;;25.90;80.00;;;;;;6157868;23;20017;-90
2023/08/11 11:20:27;;;;;;;6.90;2.92;;;25.90;77.40;;;;;;6134698;23;20020;-90
2023/08/11 11:22:53;;;;;;;7.80;3.05;;;26.00;78.30;;;;;;6158424;23;20016;-90
2023/08/11 11:25:20;;;;;;;7.70;2.85;;;26.10;78.20;;;;;;6157803;23;20012;-90
2023/08/11 11:27:46;;;;;;;7.70;2.97;;;26.20;79.10;;;;;;6133081;23;20020;-90
2023/08/11 11:30:13;;;;;;;6.40;2.70;;;26.30;77.20;;;;;;6133039;23;20092;-90
2023/08/11 11:32:39;;;;;;;6.95;2.78;;;26.40;77.10;;;;;;6158116;23;20541;-90
2023/08/11 11:35:07;;;;;;;7.13;2.53;;;26.50;75.80;;;;;;6133246;23;20009;-89
2023/08/11 11:37:33;;;;;;;8.98;3.10;;;26.50;74.70;;;;;;6157657;23;20013;-90
2023/08/11 11:40:03;;;;;;;7.28;2.70;;;26.60;73.70;;;;;;6158886;23;20016;-89
2023/08/11 11:42:29;;;;;;;6.60;2.90;;;26.70;73.70;;;;;;6158369;23;20020;-91
2023/08/11 11:44:56;;;;;;;8.65;2.80;;;26.80;72.70;;;;;;6133235;23;20013;-91
2023/08/11 11:47:22;;;;;;;8.70;2.67;;;26.90;74.40;;;;;;6132226;23;20458;-91
2023/08/11 11:49:58;;;;;;;7.80;3.05;;;27.00;74.10;;;;;;6132476;23;20020;-90
2023/08/11 11:52:27;;;;;;;9.25;3.10;;;27.00;75.60;;;;;;6184149;23;20045;-90
2023/08/11 11:54:56;;;;;;;9.52;2.63;;;27.10;74.70;;;;;;6158709;23;20009;-91
2023/08/11 11:57:22;;;;;;;7.47;3.15;;;27.20;74.60;;;;;;6157496;23;20013;-90
2023/08/11 11:59:52;;;;;;;8.82;2.90;;;27.30;74.90;;;;;;6133678;23;20009;-90
2023/08/11 12:02:18;;;;;;;6.90;2.50;;;27.50;75.60;;;;;;6159274;23;20087;-90
2023/08/11 12:04:47;;;;;;;7.50;3.28;;;27.50;74.20;;;;;;6158005;23;20016;-90
2023/08/11 12:07:32;;;;;;;8.57;2.80;;;27.60;73.60;;;;;;6132987;23;20075;-90
2023/08/11 12:10:01;;;;;;;7.72;2.80;;;27.70;70.10;;;;;;6157474;23;20028;-90
2023/08/11 12:12:28;;;;;;;6.32;2.35;;;27.80;70.20;;;;;;6157711;23;20009;-90
2023/08/11 12:15:00;;;;;;;7.63;2.47;;;27.90;69.70;;;;;;6158601;23;20067;-90
2023/08/11 12:17:30;;;;;;;8.20;2.90;;;28.00;68.20;;;;;;6183903;23;20044;-89
2023/08/11 12:20:05;;;;;;;8.88;3.38;;;27.90;69.20;;;;;;6156859;23;20036;-90
2023/08/11 12:22:30;;;;;;;7.45;2.63;;;28.00;68.50;;;;;;6132746;23;20559;-89
2023/08/11 12:24:56;;;;;;;7.85;3.00;;;28.00;68.20;;;;;;6157313;23;20044;-89
2023/08/11 12:27:22;;;;;;;8.02;2.70;;;28.10;67.00;;;;;;6182867;23;20132;-90
2023/08/11 12:29:48;;;;;;;9.50;3.00;;;28.10;66.90;;;;;;6157384;23;20028;-90
2023/08/11 12:32:13;;;;;;;6.80;2.40;;;28.10;66.60;;;;;;6157606;23;20514;-90
2023/08/11 12:34:39;;;;;;;9.00;2.72;;;28.00;67.40;;;;;;6133700;23;20100;-90
2023/08/11 12:37:05;;;;;;;8.13;3.10;;;28.10;69.30;;;;;;6132748;23;20028;-90